createdAt,value
2022-10-22T00:00:41.170Z,18.03
2022-10-22T00:03:08.369Z,18.04
2022-10-22T00:05:36.455Z,18.03
2022-10-22T00:08:03.871Z,17.88
2022-10-22T00:10:31.087Z,17.93
2022-10-22T00:12:58.184Z,17.97
2022-10-22T00:15:25.385Z,17.93
2022-10-22T00:17:52.570Z,17.82
2022-10-22T00:20:19.740Z,17.77
2022-10-22T00:22:46.906Z,17.73
2022-10-22T00:25:14.168Z,17.73
2022-10-22T00:27:41.554Z,17.81
2022-10-22T00:30:09.599Z,17.81
2022-10-22T00:32:36.999Z,17.72
2022-10-22T00:35:04.660Z,17.76
2022-10-22T00:37:31.890Z,17.72
2022-10-22T00:39:59.079Z,17.64
2022-10-22T00:42:27.424Z,17.61
2022-10-22T00:45:04.684Z,17.56
2022-10-22T00:47:35.660Z,17.57
2022-10-22T00:50:05.239Z,17.63
2022-10-22T00:52:32.573Z,17.66
2022-10-22T00:55:00.717Z,17.68
2022-10-22T00:57:28.026Z,17.77
2022-10-22T00:59:56.164Z,17.79
2022-10-22T01:02:23.852Z,17.79
2022-10-22T01:04:50.996Z,17.81
2022-10-22T01:07:20.312Z,17.97
2022-10-22T01:09:53.015Z,17.93
2022-10-22T01:12:32.236Z,18.00
2022-10-22T01:15:05.628Z,17.99
2022-10-22T01:17:36.137Z,17.91
2022-10-22T01:20:24.613Z,17.89
2022-10-22T01:23:04.020Z,17.81
2022-10-22T01:25:34.417Z,17.74
2022-10-22T01:28:07.727Z,17.76
2022-10-22T01:30:36.505Z,17.82
2022-10-22T01:33:06.336Z,17.84
2022-10-22T01:35:35.309Z,17.82
2022-10-22T01:38:05.294Z,17.82
2022-10-22T01:40:33.212Z,17.83
2022-10-22T01:43:01.894Z,17.84
2022-10-22T01:45:30.309Z,17.85
2022-10-22T01:48:06.838Z,17.87
2022-10-22T01:50:48.007Z,17.89
2022-10-22T01:53:21.896Z,17.90
2022-10-22T01:55:55.523Z,17.91
2022-10-22T01:58:34.309Z,17.90
2022-10-22T02:01:08.389Z,17.86
2022-10-22T02:03:42.056Z,17.84
2022-10-22T02:06:13.912Z,17.86
2022-10-22T02:08:41.591Z,17.82
2022-10-22T02:11:09.456Z,17.86
2022-10-22T02:13:40.573Z,17.75
2022-10-22T02:16:09.802Z,17.76
2022-10-22T02:18:39.522Z,17.84
2022-10-22T02:23:39.596Z,17.80
2022-10-22T02:26:15.277Z,17.77
2022-10-22T02:28:50.035Z,17.71
2022-10-22T02:31:22.361Z,17.67
2022-10-22T02:33:53.329Z,17.64
2022-10-22T02:36:21.220Z,17.62
2022-10-22T02:38:50.905Z,17.60
2022-10-22T02:41:18.627Z,17.57
2022-10-22T02:43:49.433Z,17.57
2022-10-22T02:46:16.735Z,17.58
2022-10-22T02:48:43.921Z,17.59
2022-10-22T02:51:11.136Z,17.64
2022-10-22T02:53:38.378Z,17.59
2022-10-22T02:56:05.731Z,17.59
2022-10-22T02:58:32.916Z,17.63
2022-10-22T03:01:00.282Z,17.60
2022-10-22T03:03:27.742Z,17.53
2022-10-22T03:05:54.952Z,17.53
2022-10-22T03:08:22.139Z,17.46
2022-10-22T03:10:49.279Z,17.48
2022-10-22T03:13:16.469Z,17.45
2022-10-22T03:15:43.626Z,17.41
2022-10-22T03:18:10.876Z,17.45
2022-10-22T03:20:38.079Z,17.46
2022-10-22T03:23:05.470Z,17.56
2022-10-22T03:25:34.646Z,17.56
2022-10-22T03:28:04.762Z,17.54
2022-10-22T03:30:31.930Z,17.53
2022-10-22T03:32:59.101Z,17.54
2022-10-22T03:35:26.713Z,17.56
2022-10-22T03:37:54.416Z,17.64
2022-10-22T03:40:21.808Z,17.60
2022-10-22T03:42:49.065Z,17.61
2022-10-22T03:45:16.230Z,17.60
2022-10-22T03:47:43.531Z,17.67
2022-10-22T03:50:10.906Z,17.71
2022-10-22T03:52:39.324Z,17.70
2022-10-22T03:55:07.377Z,17.67
2022-10-22T03:57:34.551Z,17.59
2022-10-22T04:00:01.988Z,17.59
2022-10-22T04:02:29.142Z,17.71
2022-10-22T04:04:56.443Z,17.86
2022-10-22T04:07:23.641Z,17.87
2022-10-22T04:09:50.689Z,17.80
2022-10-22T04:12:17.952Z,17.73
2022-10-22T04:14:45.086Z,17.56
2022-10-22T04:17:12.238Z,17.59
2022-10-22T04:19:39.550Z,17.65
2022-10-22T04:22:06.672Z,17.64
2022-10-22T04:24:33.885Z,17.48
2022-10-22T04:27:01.029Z,17.54
2022-10-22T04:29:28.177Z,17.53
2022-10-22T04:31:55.476Z,17.45
2022-10-22T04:34:22.668Z,17.41
2022-10-22T04:36:49.844Z,17.42
2022-10-22T04:39:17.019Z,17.42
2022-10-22T04:41:44.191Z,17.40
2022-10-22T04:44:15.288Z,17.51
2022-10-22T04:46:43.887Z,17.46
2022-10-22T04:49:11.208Z,17.45
2022-10-22T04:51:38.395Z,17.49
2022-10-22T04:54:05.661Z,17.47
2022-10-22T04:56:32.933Z,17.63
2022-10-22T04:59:01.566Z,17.60
2022-10-22T05:01:30.323Z,17.62
2022-10-22T05:03:58.772Z,17.73
2022-10-22T05:06:26.119Z,17.78
2022-10-22T05:08:57.983Z,17.70
2022-10-22T05:11:27.891Z,17.64
2022-10-22T05:13:58.944Z,17.68
2022-10-22T05:16:26.609Z,17.76
2022-10-22T05:18:53.756Z,17.78
2022-10-22T05:21:21.609Z,17.78
2022-10-22T05:23:50.246Z,17.75
2022-10-22T05:26:18.681Z,17.80
2022-10-22T05:28:46.665Z,17.80
2022-10-22T05:31:14.273Z,17.81
2022-10-22T05:33:42.014Z,17.80
2022-10-22T05:36:11.331Z,17.95
2022-10-22T05:38:38.556Z,17.96
2022-10-22T05:41:07.452Z,17.92
2022-10-22T05:43:35.100Z,17.85
2022-10-22T05:46:04.005Z,17.81
2022-10-22T05:51:05.538Z,17.67
2022-10-22T05:53:33.362Z,17.67
2022-10-22T05:56:01.587Z,17.69
2022-10-22T05:58:28.881Z,17.77
2022-10-22T06:01:00.804Z,17.84
2022-10-22T06:03:28.921Z,17.84
2022-10-22T06:05:56.061Z,17.82
2022-10-22T06:08:23.338Z,17.86
2022-10-22T06:10:50.726Z,17.86
2022-10-22T06:13:17.936Z,17.91
2022-10-22T06:15:45.042Z,18.02
2022-10-22T06:18:12.376Z,17.99
2022-10-22T06:20:39.675Z,17.97
2022-10-22T06:23:06.846Z,17.94
2022-10-22T06:25:33.953Z,17.93
2022-10-22T06:28:01.063Z,17.95
2022-10-22T06:30:28.231Z,17.95
2022-10-22T06:32:55.986Z,17.99
2022-10-22T06:35:23.178Z,18.03
2022-10-22T06:37:50.365Z,18.06
2022-10-22T06:40:18.768Z,18.08
2022-10-22T06:42:46.002Z,18.13
2022-10-22T06:45:13.352Z,18.08
2022-10-22T06:47:40.646Z,18.07
2022-10-22T06:50:08.049Z,18.13
2022-10-22T06:52:35.139Z,18.11
2022-10-22T06:55:02.298Z,18.15
2022-10-22T06:57:30.066Z,18.16
2022-10-22T06:59:57.199Z,18.10
2022-10-22T07:02:24.370Z,18.11
2022-10-22T07:04:51.488Z,18.12
2022-10-22T07:07:18.607Z,18.14
2022-10-22T07:09:47.416Z,18.22
2022-10-22T07:12:16.108Z,18.24
2022-10-22T07:14:43.249Z,18.30
2022-10-22T07:17:10.356Z,18.33
2022-10-22T07:19:37.617Z,18.32
2022-10-22T07:22:04.861Z,18.36
2022-10-22T07:24:31.991Z,18.38
2022-10-22T07:26:59.149Z,18.43
2022-10-22T07:29:26.589Z,18.54
2022-10-22T07:31:56.882Z,18.58
2022-10-22T07:34:24.027Z,18.63
2022-10-22T07:36:51.217Z,18.66
2022-10-22T07:39:19.200Z,18.81
2022-10-22T07:41:46.780Z,18.93
2022-10-22T07:44:14.068Z,18.90
2022-10-22T07:46:42.747Z,19.00
2022-10-22T07:49:11.578Z,19.10
2022-10-22T07:51:38.768Z,19.17
2022-10-22T07:54:06.141Z,19.20
2022-10-22T07:56:33.448Z,19.30
2022-10-22T08:01:32.732Z,20.12
2022-10-22T08:03:59.911Z,20.51
2022-10-22T08:06:27.057Z,20.71
2022-10-22T08:08:54.516Z,21.20
2022-10-22T08:11:21.873Z,21.10
2022-10-22T08:13:49.028Z,21.03
2022-10-22T08:16:16.369Z,21.22
2022-10-22T08:18:43.593Z,21.08
2022-10-22T08:21:11.656Z,20.95
2022-10-22T08:24:03.720Z,20.68
2022-10-22T08:26:30.977Z,20.41
2022-10-22T08:28:58.272Z,20.25
2022-10-22T08:31:25.459Z,20.12
2022-10-22T08:33:52.760Z,20.07
2022-10-22T08:36:19.912Z,20.13
2022-10-22T08:38:47.045Z,20.19
2022-10-22T08:41:16.703Z,20.28
2022-10-22T08:43:46.891Z,20.28
2022-10-22T08:46:21.915Z,20.14
2022-10-22T08:48:50.928Z,20.13
2022-10-22T08:51:21.075Z,20.10
2022-10-22T08:54:06.859Z,20.08
2022-10-22T08:56:44.616Z,20.03
2022-10-22T08:59:11.926Z,20.00
2022-10-22T09:01:41.710Z,19.97
2022-10-22T09:04:25.438Z,19.97
2022-10-22T09:06:54.979Z,19.99
2022-10-22T09:09:25.721Z,19.97
2022-10-22T09:11:55.439Z,19.94
2022-10-22T09:14:24.059Z,19.94
2022-10-22T09:17:02.437Z,19.93
2022-10-22T09:19:33.437Z,19.95
2022-10-22T09:22:05.315Z,19.95
2022-10-22T09:24:57.475Z,19.94
2022-10-22T09:27:30.052Z,19.96
2022-10-22T09:29:57.429Z,20.06
2022-10-22T09:32:25.482Z,20.05
2022-10-22T09:34:55.465Z,20.18
2022-10-22T09:37:25.289Z,20.29
2022-10-22T09:39:52.999Z,20.34
2022-10-22T09:42:20.890Z,20.32
2022-10-22T09:44:58.836Z,20.35
2022-10-22T09:47:42.891Z,20.24
2022-10-22T09:50:22.450Z,20.26
2022-10-22T09:53:05.390Z,20.27
2022-10-22T09:55:32.688Z,20.43
2022-10-22T09:58:00.497Z,20.39
2022-10-22T10:00:28.404Z,20.54
2022-10-22T10:03:00.238Z,20.60
2022-10-22T10:05:29.486Z,20.60
2022-10-22T10:07:57.123Z,20.52
2022-10-22T10:10:43.017Z,20.51
2022-10-22T10:13:22.190Z,20.56
2022-10-22T10:15:55.008Z,20.54
2022-10-22T10:18:30.639Z,20.65
2022-10-22T10:21:06.884Z,20.68
2022-10-22T10:23:46.712Z,20.66
2022-10-22T10:26:14.103Z,20.51
2022-10-22T10:28:56.765Z,20.50
2022-10-22T10:31:27.054Z,20.51
2022-10-22T10:34:00.222Z,20.55
2022-10-22T10:36:30.136Z,20.55
2022-10-22T10:39:04.904Z,20.60
2022-10-22T10:41:40.965Z,20.62
2022-10-22T10:44:26.299Z,20.66
2022-10-22T10:47:16.418Z,20.68
2022-10-22T10:49:43.862Z,20.71
2022-10-22T10:52:21.486Z,20.78
2022-10-22T10:54:51.697Z,20.81
2022-10-22T10:57:37.193Z,20.83
2022-10-22T11:00:07.447Z,20.87
2022-10-22T11:02:34.549Z,20.88
2022-10-22T11:05:15.149Z,20.86
2022-10-22T11:07:49.930Z,20.88
2022-10-22T11:10:32.897Z,20.93
2022-10-22T11:13:11.068Z,20.99
2022-10-22T11:15:39.363Z,21.01
2022-10-22T11:18:07.455Z,21.01
2022-10-22T11:20:40.357Z,21.00
2022-10-22T11:23:19.368Z,20.99
2022-10-22T11:25:48.432Z,21.03
2022-10-22T11:30:46.532Z,21.09
2022-10-22T11:33:18.605Z,21.07
2022-10-22T11:35:46.733Z,21.02
2022-10-22T11:38:25.188Z,20.96
2022-10-22T11:40:59.201Z,20.97
2022-10-22T11:43:26.778Z,21.03
2022-10-22T11:46:17.590Z,21.14
2022-10-22T11:48:44.977Z,21.20
2022-10-22T11:51:33.345Z,21.24
2022-10-22T11:54:02.131Z,21.21
2022-10-22T11:56:37.455Z,21.20
2022-10-22T11:59:08.534Z,21.13
2022-10-22T12:01:42.865Z,21.03
2022-10-22T12:04:18.195Z,20.95
2022-10-22T12:06:55.909Z,20.90
2022-10-22T12:09:24.778Z,20.82
2022-10-22T12:11:52.409Z,20.75
2022-10-22T12:14:29.966Z,20.69
2022-10-22T12:16:57.836Z,20.65
2022-10-22T12:19:45.427Z,20.64
2022-10-22T12:22:12.636Z,20.64
2022-10-22T12:25:02.059Z,20.61
2022-10-22T12:27:40.112Z,20.60
2022-10-22T12:30:17.427Z,20.57
2022-10-22T12:32:44.845Z,20.52
2022-10-22T12:35:15.948Z,20.52
2022-10-22T12:37:43.446Z,20.50
2022-10-22T12:40:18.217Z,20.48
2022-10-22T12:42:56.108Z,20.50
2022-10-22T12:45:25.689Z,20.50
2022-10-22T12:47:56.473Z,20.59
2022-10-22T12:50:29.345Z,20.60
2022-10-22T12:52:56.597Z,20.54
2022-10-22T12:55:28.133Z,20.52
2022-10-22T12:57:55.388Z,20.46
2022-10-22T13:00:24.411Z,20.48
2022-10-22T13:02:52.364Z,20.58
2022-10-22T13:05:19.581Z,20.53
2022-10-22T13:07:48.245Z,20.44
2022-10-22T13:10:26.384Z,20.44
2022-10-22T13:12:57.706Z,20.39
2022-10-22T13:15:27.897Z,20.38
2022-10-22T13:18:16.797Z,20.40
2022-10-22T13:20:54.924Z,20.45
2022-10-22T13:23:24.162Z,20.40
2022-10-22T13:25:57.157Z,20.40
2022-10-22T13:28:25.116Z,20.38
2022-10-22T13:30:54.180Z,20.39
2022-10-22T13:33:30.385Z,20.41
2022-10-22T13:35:57.531Z,20.38
2022-10-22T13:38:25.862Z,20.39
2022-10-22T13:40:53.188Z,20.36
2022-10-22T13:43:20.473Z,20.28
2022-10-22T13:45:48.763Z,20.20
2022-10-22T13:48:16.892Z,20.24
2022-10-22T13:50:44.101Z,20.23
2022-10-22T13:53:19.154Z,20.19
2022-10-22T13:55:47.589Z,20.12
2022-10-22T13:58:19.248Z,20.19
2022-10-22T14:00:49.261Z,20.25
2022-10-22T14:03:18.261Z,20.23
2022-10-22T14:05:45.978Z,20.24
2022-10-22T14:08:14.455Z,20.25
2022-10-22T14:10:41.647Z,20.24
2022-10-22T14:13:12.173Z,20.25
2022-10-22T14:15:39.753Z,20.30
2022-10-22T14:18:07.743Z,20.34
2022-10-22T14:20:36.306Z,20.35
2022-10-22T14:23:11.877Z,20.35
2022-10-22T14:25:39.011Z,20.35
2022-10-22T14:28:06.100Z,20.37
2022-10-22T14:30:33.296Z,20.37
2022-10-22T14:33:00.474Z,20.38
2022-10-22T14:35:27.747Z,20.39
2022-10-22T14:37:54.980Z,20.39
2022-10-22T14:40:22.225Z,20.42
2022-10-22T14:42:49.612Z,20.43
2022-10-22T14:45:21.169Z,20.47
2022-10-22T14:47:48.765Z,20.49
2022-10-22T14:50:15.946Z,20.51
2022-10-22T14:52:43.873Z,20.55
2022-10-22T14:55:12.282Z,20.57
2022-10-22T14:57:40.006Z,20.58
2022-10-22T15:00:09.525Z,20.57
2022-10-22T15:02:36.734Z,20.57
2022-10-22T15:05:04.118Z,20.58
2022-10-22T15:07:31.378Z,20.59
2022-10-22T15:09:58.558Z,20.62
2022-10-22T15:12:25.737Z,20.63
2022-10-22T15:14:53.913Z,20.63
2022-10-22T15:17:22.416Z,20.62
2022-10-22T15:19:49.743Z,20.63
2022-10-22T15:22:17.421Z,20.60
2022-10-22T15:24:44.813Z,20.59
2022-10-22T15:27:13.873Z,20.56
2022-10-22T15:29:41.776Z,20.55
2022-10-22T15:32:12.218Z,20.53
2022-10-22T15:34:40.028Z,20.52
2022-10-22T15:37:08.601Z,20.51
2022-10-22T15:39:35.886Z,20.52
2022-10-22T15:42:03.139Z,20.49
2022-10-22T15:44:31.466Z,20.45
2022-10-22T15:46:59.305Z,20.44
2022-10-22T15:49:27.714Z,20.40
2022-10-22T15:51:55.413Z,20.38
2022-10-22T15:54:25.166Z,20.35
2022-10-22T15:56:52.557Z,20.32
2022-10-22T15:59:20.038Z,20.28
2022-10-22T16:01:47.571Z,20.25
2022-10-22T16:04:14.972Z,20.23
2022-10-22T16:06:43.933Z,20.19
2022-10-22T16:09:13.699Z,20.17
2022-10-22T16:11:42.000Z,20.10
2022-10-22T16:14:10.806Z,19.98
2022-10-22T16:16:39.968Z,19.95
2022-10-22T16:19:07.454Z,19.90
2022-10-22T16:21:34.647Z,19.77
2022-10-22T16:24:06.130Z,19.76
2022-10-22T16:26:34.213Z,19.64
2022-10-22T16:29:01.374Z,19.58
2022-10-22T16:31:28.774Z,19.58
2022-10-22T16:33:56.047Z,19.64
2022-10-22T16:36:23.483Z,19.61
2022-10-22T16:38:50.736Z,19.56
2022-10-22T16:41:19.142Z,19.51
2022-10-22T16:43:48.442Z,19.51
2022-10-22T16:46:16.836Z,19.50
2022-10-22T16:48:45.058Z,19.38
2022-10-22T16:51:13.292Z,19.21
2022-10-22T16:53:40.732Z,19.14
2022-10-22T16:56:11.693Z,19.14
2022-10-22T16:58:39.335Z,19.09
2022-10-22T17:01:09.969Z,19.05
2022-10-22T17:03:37.307Z,19.06
2022-10-22T17:06:05.117Z,19.06
2022-10-22T17:08:34.302Z,19.03
2022-10-22T17:11:08.128Z,19.01
2022-10-22T17:13:35.722Z,18.99
2022-10-22T17:16:04.302Z,18.97
2022-10-22T17:18:32.207Z,18.86
2022-10-22T17:20:59.435Z,18.77
2022-10-22T17:23:28.554Z,18.79
2022-10-22T17:25:59.933Z,18.82
2022-10-22T17:28:27.789Z,18.84
2022-10-22T17:31:05.182Z,18.85
2022-10-22T17:33:33.772Z,18.82
2022-10-22T17:36:01.561Z,18.76
2022-10-22T17:38:28.828Z,18.71
2022-10-22T17:40:57.214Z,18.50
2022-10-22T17:43:24.461Z,18.28
2022-10-22T17:45:51.757Z,18.19
2022-10-22T17:48:19.086Z,18.22
2022-10-22T17:50:49.651Z,18.26
2022-10-22T17:53:18.632Z,18.17
2022-10-22T17:55:46.517Z,17.99
2022-10-22T17:58:13.777Z,18.07
2022-10-22T18:00:40.996Z,17.89
2022-10-22T18:03:08.806Z,17.97
2022-10-22T18:05:36.093Z,18.06
2022-10-22T18:08:07.679Z,17.86
2022-10-22T18:10:38.835Z,17.68
2022-10-22T18:13:06.049Z,17.77
2022-10-22T18:15:33.979Z,17.82
2022-10-22T18:18:01.420Z,17.83
2022-10-22T18:20:28.797Z,17.71
2022-10-22T18:22:55.989Z,17.71
2022-10-22T18:25:23.417Z,17.82
2022-10-22T18:27:50.673Z,17.79
2022-10-22T18:30:18.005Z,17.44
2022-10-22T18:32:45.280Z,17.23
2022-10-22T18:35:12.471Z,17.05
2022-10-22T18:37:40.034Z,17.14
2022-10-22T18:40:10.413Z,17.27
2022-10-22T18:42:40.093Z,17.39
2022-10-22T18:45:07.480Z,17.30
2022-10-22T18:47:34.705Z,17.35
2022-10-22T18:50:01.975Z,17.48
2022-10-22T18:52:29.111Z,17.59
2022-10-22T18:54:57.223Z,17.67
2022-10-22T18:57:25.018Z,17.68
2022-10-22T18:59:54.639Z,17.54
2022-10-22T19:02:24.550Z,17.57
2022-10-22T19:04:51.774Z,17.63
2022-10-22T19:07:18.923Z,17.65
2022-10-22T19:09:46.413Z,17.64
2022-10-22T19:12:15.083Z,17.61
2022-10-22T19:14:42.880Z,17.61
2022-10-22T19:17:10.205Z,17.55
2022-10-22T19:19:37.471Z,17.39
2022-10-22T19:22:05.422Z,17.44
2022-10-22T19:24:33.209Z,17.48
2022-10-22T19:27:00.429Z,17.51
2022-10-22T19:29:29.050Z,17.52
2022-10-22T19:31:56.285Z,17.55
2022-10-22T19:34:24.018Z,17.48
2022-10-22T19:36:51.954Z,17.47
2022-10-22T19:39:19.779Z,17.48
2022-10-22T19:41:47.044Z,17.49
2022-10-22T19:44:14.213Z,17.49
2022-10-22T19:46:42.112Z,17.48
2022-10-22T19:49:09.714Z,17.42
2022-10-22T19:51:37.705Z,17.37
2022-10-22T19:54:06.121Z,17.36
2022-10-22T19:56:34.075Z,17.42
2022-10-22T19:59:01.635Z,17.48
2022-10-22T20:01:29.004Z,17.55
2022-10-22T20:03:56.329Z,17.48
2022-10-22T20:06:23.715Z,17.44
2022-10-22T20:08:53.824Z,17.52
2022-10-22T20:11:25.307Z,17.57
2022-10-22T20:13:52.827Z,17.64
2022-10-22T20:16:23.100Z,17.66
2022-10-22T20:18:51.138Z,17.66
2022-10-22T20:21:21.977Z,17.62
2022-10-22T20:23:51.772Z,17.58
2022-10-22T20:26:21.833Z,17.61
2022-10-22T20:28:49.011Z,17.58
2022-10-22T20:31:17.520Z,17.58
2022-10-22T20:33:44.571Z,17.53
2022-10-22T20:36:22.740Z,17.50
2022-10-22T20:38:50.435Z,17.46
2022-10-22T20:41:19.590Z,17.51
2022-10-22T20:43:47.325Z,17.43
2022-10-22T20:46:17.670Z,17.39
2022-10-22T20:48:45.013Z,17.37
2022-10-22T20:51:13.099Z,17.49
2022-10-22T20:53:40.302Z,17.56
2022-10-22T20:56:07.655Z,17.46
2022-10-22T20:58:35.757Z,17.45
2022-10-22T21:01:09.821Z,17.43
2022-10-22T21:03:37.779Z,17.28
2022-10-22T21:06:05.504Z,17.14
2022-10-22T21:08:32.651Z,17.07
2022-10-22T21:10:59.905Z,17.13
2022-10-22T21:13:27.074Z,17.25
2022-10-22T21:15:54.282Z,17.22
2022-10-22T21:18:21.460Z,17.13
2022-10-22T21:20:48.585Z,17.08
2022-10-22T21:23:15.893Z,17.05
2022-10-22T21:25:52.607Z,17.04
2022-10-22T21:28:19.743Z,17.00
2022-10-22T21:30:46.877Z,16.95
2022-10-22T21:33:14.035Z,16.97
2022-10-22T21:35:41.125Z,16.98
2022-10-22T21:38:08.313Z,16.75
2022-10-22T21:40:38.426Z,16.72
2022-10-22T21:43:05.524Z,16.81
2022-10-22T21:45:32.574Z,16.80
2022-10-22T21:47:59.725Z,16.81
2022-10-22T21:50:26.928Z,16.78
2022-10-22T21:52:54.009Z,16.77
2022-10-22T21:55:21.163Z,16.82
2022-10-22T21:57:48.315Z,16.85
2022-10-22T22:00:15.999Z,16.85
2022-10-22T22:02:51.612Z,16.83
2022-10-22T22:05:20.689Z,16.78
2022-10-22T22:07:47.792Z,16.76
2022-10-22T22:10:14.896Z,16.78
2022-10-22T22:12:42.221Z,16.79
2022-10-22T22:15:09.991Z,16.82
2022-10-22T22:17:37.188Z,16.86
2022-10-22T22:20:05.928Z,16.66
2022-10-22T22:22:33.201Z,16.67
2022-10-22T22:25:00.257Z,16.67
2022-10-22T22:27:27.360Z,16.69
2022-10-22T22:29:54.483Z,16.86
2022-10-22T22:32:21.700Z,16.97
2022-10-22T22:34:48.909Z,16.99
2022-10-22T22:37:16.069Z,16.99
2022-10-22T22:39:43.244Z,16.98
2022-10-22T22:42:10.349Z,16.94
2022-10-22T22:44:38.586Z,16.95
2022-10-22T22:47:05.878Z,16.96
2022-10-22T22:49:33.174Z,16.88
2022-10-22T22:52:00.370Z,16.77
2022-10-22T22:54:27.632Z,16.78
2022-10-22T22:56:54.785Z,16.82
2022-10-22T22:59:22.267Z,16.79
2022-10-22T23:01:50.130Z,16.77
2022-10-22T23:04:19.409Z,16.80
2022-10-22T23:06:46.641Z,16.82
2022-10-22T23:09:14.925Z,16.70
2022-10-22T23:11:43.496Z,16.60
2022-10-22T23:14:11.647Z,16.65
2022-10-22T23:16:40.781Z,16.73
2022-10-22T23:19:07.939Z,16.79
2022-10-22T23:21:36.215Z,16.68
2022-10-22T23:24:07.970Z,16.66
2022-10-22T23:26:36.916Z,16.72
2022-10-22T23:29:11.431Z,16.70
2022-10-22T23:31:39.045Z,16.47
2022-10-22T23:34:06.963Z,16.31
2022-10-22T23:36:34.861Z,16.37
2022-10-22T23:39:04.153Z,16.50
2022-10-22T23:41:31.286Z,16.59
2022-10-22T23:43:58.401Z,16.54
2022-10-22T23:46:25.754Z,16.58
2022-10-22T23:48:53.810Z,16.63
2022-10-22T23:51:21.308Z,16.68
2022-10-22T23:53:53.948Z,16.72
2022-10-22T23:56:21.078Z,16.69
2022-10-22T23:58:52.054Z,16.71
